createdAt,value
2023-03-26T00:01:41.092Z,97570.50
2023-03-26T00:04:08.495Z,97552.75
2023-03-26T00:06:39.990Z,97571.34
2023-03-26T00:09:13.774Z,97572.03
2023-03-26T00:11:42.084Z,97574.56
2023-03-26T00:14:14.176Z,97570.19
2023-03-26T00:16:44.363Z,97566.78
2023-03-26T00:19:12.885Z,97557.50
2023-03-26T00:21:40.232Z,97569.00
2023-03-26T00:24:15.491Z,97575.09
2023-03-26T00:26:43.559Z,97572.88
2023-03-26T00:29:12.225Z,97584.03
2023-03-26T00:31:40.193Z,97582.69
2023-03-26T00:34:07.369Z,97581.88
2023-03-26T00:36:36.340Z,97583.56
2023-03-26T00:39:06.410Z,97594.72
2023-03-26T00:41:37.476Z,97590.84
2023-03-26T00:44:05.063Z,97584.38
2023-03-26T00:46:32.689Z,97590.84
2023-03-26T00:49:01.999Z,97583.56
2023-03-26T00:51:29.984Z,97592.69
2023-03-26T00:53:58.768Z,97584.56
2023-03-26T00:56:26.731Z,97583.22
2023-03-26T00:58:54.040Z,97585.75
2023-03-26T01:01:30.739Z,97589.47
2023-03-26T01:04:07.399Z,97593.53
2023-03-26T01:06:41.592Z,97592.84
2023-03-26T01:09:21.119Z,97608.09
2023-03-26T01:11:50.224Z,97613.13
2023-03-26T01:14:27.113Z,97605.38
2023-03-26T01:17:01.384Z,97590.81
2023-03-26T01:19:46.149Z,97601.31
2023-03-26T01:22:22.717Z,97613.34
2023-03-26T01:24:54.197Z,97614.19
2023-03-26T01:27:44.706Z,97619.31
2023-03-26T01:30:29.385Z,97612.88
2023-03-26T01:33:22.312Z,97611.66
2023-03-26T01:36:05.764Z,97615.41
2023-03-26T01:38:40.294Z,97615.56
2023-03-26T01:41:10.298Z,97622.84
2023-03-26T01:43:50.580Z,97616.72
2023-03-26T01:46:19.802Z,97615.53
2023-03-26T01:48:48.498Z,97623.59
2023-03-26T01:51:31.225Z,97629.03
2023-03-26T01:53:59.949Z,97628.47
2023-03-26T01:56:38.406Z,97640.53
2023-03-26T01:59:29.894Z,97635.13
2023-03-26T02:02:27.192Z,97631.97
2023-03-26T02:04:58.102Z,97630.97
2023-03-26T02:07:38.266Z,97635.22
2023-03-26T02:10:14.287Z,97636.91
2023-03-26T02:12:43.245Z,97641.97
2023-03-26T02:15:11.727Z,97638.22
2023-03-26T02:17:40.762Z,97631.97
2023-03-26T02:20:10.704Z,97644.66
2023-03-26T02:22:41.893Z,97650.06
2023-03-26T02:25:13.459Z,97650.00
2023-03-26T02:27:43.176Z,97655.53
2023-03-26T02:30:15.812Z,97662.66
2023-03-26T02:32:44.903Z,97653.19
2023-03-26T02:35:13.097Z,97676.38
2023-03-26T02:37:40.794Z,97672.66
2023-03-26T02:40:16.305Z,97673.59
2023-03-26T02:42:45.975Z,97666.63
2023-03-26T02:45:13.785Z,97683.16
2023-03-26T02:48:16.689Z,97693.38
2023-03-26T02:50:57.861Z,97682.53
2023-03-26T02:53:34.405Z,97688.34
2023-03-26T02:56:20.232Z,97681.72
2023-03-26T02:59:01.078Z,97685.13
2023-03-26T03:01:31.137Z,97696.78
2023-03-26T03:03:58.754Z,97702.16
2023-03-26T03:06:38.624Z,97711.47
2023-03-26T03:09:09.534Z,97706.44
2023-03-26T03:11:37.489Z,97697.94
2023-03-26T03:14:05.951Z,97713.13
2023-03-26T03:16:34.173Z,97705.19
2023-03-26T03:19:10.076Z,97700.38
2023-03-26T03:21:39.118Z,97704.31
2023-03-26T03:24:07.897Z,97706.16
2023-03-26T03:26:41.564Z,97714.72
2023-03-26T03:29:29.003Z,97723.66
2023-03-26T03:32:00.410Z,97716.50
2023-03-26T03:34:42.989Z,97721.25
2023-03-26T03:37:10.503Z,97704.94
2023-03-26T03:39:49.666Z,97726.59
2023-03-26T03:42:20.017Z,97724.56
2023-03-26T03:44:49.021Z,97718.41
2023-03-26T03:47:36.249Z,97712.56
2023-03-26T03:50:04.356Z,97718.34
2023-03-26T03:52:32.022Z,97715.09
2023-03-26T03:55:02.419Z,97733.13
2023-03-26T03:57:57.120Z,97726.88
2023-03-26T04:00:25.636Z,97725.41
2023-03-26T04:03:14.706Z,97751.53
2023-03-26T04:05:44.292Z,97749.81
2023-03-26T04:08:11.801Z,97735.53
2023-03-26T04:10:48.315Z,97746.66
2023-03-26T04:13:34.258Z,97738.69
2023-03-26T04:16:21.799Z,97746.78
2023-03-26T04:18:49.739Z,97760.94
2023-03-26T04:21:17.307Z,97763.88
2023-03-26T04:23:45.974Z,97771.31
2023-03-26T04:26:31.122Z,97777.00
2023-03-26T04:29:06.608Z,97786.41
2023-03-26T04:31:36.621Z,97770.38
2023-03-26T04:34:08.611Z,97782.13
2023-03-26T04:36:46.695Z,97798.16
2023-03-26T04:39:15.717Z,97805.69
2023-03-26T04:42:11.841Z,97813.81
2023-03-26T04:44:52.604Z,97817.06
2023-03-26T04:47:20.368Z,97824.00
2023-03-26T04:49:48.722Z,97813.38
2023-03-26T04:52:17.690Z,97795.78
2023-03-26T04:54:47.851Z,97809.94
2023-03-26T04:57:26.783Z,97813.06
2023-03-26T05:00:19.694Z,97824.31
2023-03-26T05:02:58.156Z,97826.97
2023-03-26T05:05:27.128Z,97836.97
2023-03-26T05:07:55.395Z,97848.00
2023-03-26T05:10:24.132Z,97853.09
2023-03-26T05:13:02.789Z,97863.31
2023-03-26T05:15:34.343Z,97858.63
2023-03-26T05:18:27.518Z,97875.03
2023-03-26T05:20:57.804Z,97872.34
2023-03-26T05:23:26.731Z,97875.03
2023-03-26T05:26:07.963Z,97868.72
2023-03-26T05:28:36.395Z,97874.78
2023-03-26T05:31:15.817Z,97874.72
2023-03-26T05:33:46.736Z,97879.63
2023-03-26T05:36:15.642Z,97875.88
2023-03-26T05:38:49.998Z,97874.00
2023-03-26T05:41:37.235Z,97878.44
2023-03-26T05:44:04.914Z,97888.09
2023-03-26T05:46:32.569Z,97875.41
2023-03-26T05:49:00.669Z,97874.38
2023-03-26T05:51:31.560Z,97864.59
2023-03-26T05:54:14.802Z,97863.19
2023-03-26T05:57:01.033Z,97873.88
2023-03-26T05:59:46.622Z,97867.84
2023-03-26T06:02:47.438Z,97874.91
2023-03-26T06:05:52.954Z,97885.69
2023-03-26T06:08:32.524Z,97887.09
2023-03-26T06:11:02.113Z,97890.91
2023-03-26T06:13:33.192Z,97891.53
2023-03-26T06:16:00.665Z,97898.63
2023-03-26T06:18:34.041Z,97900.47
2023-03-26T06:21:20.476Z,97892.25
2023-03-26T06:23:58.483Z,97891.97
2023-03-26T06:26:48.266Z,97888.34
2023-03-26T06:29:18.347Z,97885.16
2023-03-26T06:32:18.425Z,97883.72
2023-03-26T06:34:53.359Z,97883.59
2023-03-26T06:37:20.522Z,97887.97
2023-03-26T06:39:49.245Z,97890.69
2023-03-26T06:42:22.009Z,97889.66
2023-03-26T06:45:28.894Z,97890.38
2023-03-26T06:48:28.756Z,97885.28
2023-03-26T06:51:13.307Z,97889.75
2023-03-26T06:53:58.932Z,97887.78
2023-03-26T06:56:45.285Z,97883.88
2023-03-26T06:59:31.409Z,97884.88
2023-03-26T07:02:18.941Z,97892.50
2023-03-26T07:05:05.204Z,97882.97
2023-03-26T07:07:50.880Z,97885.13
2023-03-26T07:10:36.673Z,97886.34
2023-03-26T07:13:12.616Z,97884.66
2023-03-26T07:15:58.529Z,97881.16
2023-03-26T07:18:40.338Z,97872.19
2023-03-26T07:21:10.954Z,97888.09
2023-03-26T07:23:38.471Z,97892.50
2023-03-26T07:26:56.586Z,97894.34
2023-03-26T07:29:59.324Z,97905.97
2023-03-26T07:32:53.386Z,97893.44
2023-03-26T07:35:46.889Z,97906.75
2023-03-26T07:38:52.193Z,97901.75
2023-03-26T07:41:56.254Z,97904.03
2023-03-26T07:44:47.844Z,97908.97
2023-03-26T07:47:35.349Z,97901.09
2023-03-26T07:50:25.835Z,97895.06
2023-03-26T07:53:11.486Z,97898.72
2023-03-26T07:56:17.022Z,97902.09
2023-03-26T07:59:04.237Z,97893.59
2023-03-26T08:01:57.271Z,97883.44
2023-03-26T08:04:44.198Z,97882.91
2023-03-26T08:07:53.355Z,97887.53
2023-03-26T08:10:43.421Z,97876.63
2023-03-26T08:13:39.443Z,97879.84
2023-03-26T08:16:24.159Z,97875.38
2023-03-26T08:18:54.630Z,97880.50
2023-03-26T08:21:29.153Z,97871.47
2023-03-26T08:24:13.866Z,97880.97
2023-03-26T08:26:53.321Z,97866.69
2023-03-26T08:29:35.216Z,97872.75
2023-03-26T08:32:04.915Z,97870.91
2023-03-26T08:34:32.170Z,97870.63
2023-03-26T08:36:59.284Z,97859.00
2023-03-26T08:39:26.372Z,97845.56
2023-03-26T08:42:33.350Z,97843.19
2023-03-26T08:45:21.638Z,97842.94
2023-03-26T08:48:19.095Z,97842.25
2023-03-26T08:51:01.878Z,97837.00
2023-03-26T08:54:04.243Z,97837.38
2023-03-26T08:56:50.153Z,97839.13
2023-03-26T08:59:54.488Z,97836.81
2023-03-26T09:02:38.569Z,97841.97
2023-03-26T09:05:17.715Z,97832.63
2023-03-26T09:08:09.182Z,97822.63
2023-03-26T09:10:53.243Z,97817.38
2023-03-26T09:13:38.610Z,97820.38
2023-03-26T09:16:27.577Z,97822.44
2023-03-26T09:19:42.987Z,97819.19
2023-03-26T09:22:28.362Z,97815.78
2023-03-26T09:25:34.871Z,97814.44
2023-03-26T09:28:14.596Z,97809.44
2023-03-26T09:31:08.226Z,97809.72
2023-03-26T09:33:56.635Z,97806.06
2023-03-26T09:36:32.780Z,97790.97
2023-03-26T09:39:09.027Z,97797.78
2023-03-26T09:41:44.553Z,97799.03
2023-03-26T09:44:17.424Z,97785.53
2023-03-26T09:47:04.087Z,97781.28
2023-03-26T09:49:37.783Z,97778.41
2023-03-26T09:52:05.210Z,97781.44
2023-03-26T09:54:37.158Z,97775.78
2023-03-26T09:57:26.203Z,97777.31
2023-03-26T10:00:02.163Z,97772.09
2023-03-26T10:03:00.395Z,97773.00
2023-03-26T10:05:58.645Z,97772.44
2023-03-26T10:09:03.123Z,97767.34
2023-03-26T10:11:39.018Z,97765.22
2023-03-26T10:14:33.864Z,97763.94
2023-03-26T10:17:17.082Z,97761.56
2023-03-26T10:20:09.879Z,97756.09
2023-03-26T10:22:37.956Z,97756.31
2023-03-26T10:25:27.395Z,97749.06
2023-03-26T10:28:26.850Z,97739.44
2023-03-26T10:31:23.198Z,97733.34
2023-03-26T10:34:08.110Z,97730.41
2023-03-26T10:36:57.376Z,97734.63
2023-03-26T10:40:08.313Z,97729.19
2023-03-26T10:42:42.476Z,97716.28
2023-03-26T10:45:57.284Z,97717.97
2023-03-26T10:48:51.860Z,97711.31
2023-03-26T10:51:33.700Z,97713.13
2023-03-26T10:54:39.763Z,97704.16
2023-03-26T10:57:22.829Z,97696.03
2023-03-26T10:59:50.636Z,97690.25
2023-03-26T11:02:44.601Z,97680.66
2023-03-26T11:05:42.355Z,97672.66
2023-03-26T11:08:38.428Z,97672.22
2023-03-26T11:11:33.121Z,97665.47
2023-03-26T11:14:15.085Z,97651.56
2023-03-26T11:16:55.872Z,97651.97
2023-03-26T11:19:37.223Z,97654.84
2023-03-26T11:22:29.191Z,97650.16
2023-03-26T11:25:04.447Z,97646.66
2023-03-26T11:27:50.059Z,97643.56
2023-03-26T11:30:30.050Z,97646.47
2023-03-26T11:33:08.204Z,97639.03
2023-03-26T11:35:44.098Z,97639.19
2023-03-26T11:38:22.035Z,97627.56
2023-03-26T11:40:53.509Z,97623.63
2023-03-26T11:43:52.828Z,97621.97
2023-03-26T11:46:23.615Z,97621.06
2023-03-26T11:48:58.458Z,97613.03
2023-03-26T11:51:33.479Z,97613.22
2023-03-26T11:54:02.013Z,97607.84
2023-03-26T11:57:05.211Z,97599.19
2023-03-26T11:59:56.462Z,97602.47
2023-03-26T12:02:26.385Z,97597.22
2023-03-26T12:05:12.468Z,97596.84
2023-03-26T12:08:00.774Z,97581.47
2023-03-26T12:10:39.505Z,97561.63
2023-03-26T12:13:14.595Z,97570.91
2023-03-26T12:15:44.438Z,97568.06
2023-03-26T12:18:26.411Z,97553.63
2023-03-26T12:21:16.160Z,97540.28
2023-03-26T12:23:52.042Z,97554.00
2023-03-26T12:26:22.321Z,97549.00
2023-03-26T12:28:51.632Z,97535.31
2023-03-26T12:31:19.783Z,97547.78
2023-03-26T12:34:06.627Z,97538.59
2023-03-26T12:36:36.103Z,97523.09
2023-03-26T12:40:10.632Z,97527.91
2023-03-26T12:44:53.177Z,97516.66
2023-03-26T12:45:24.069Z,97515.28
2023-03-26T12:47:57.106Z,97503.91
2023-03-26T12:50:57.611Z,97501.56
2023-03-26T12:53:55.614Z,97492.13
2023-03-26T12:56:22.556Z,97487.91
2023-03-26T12:59:14.458Z,97486.66
2023-03-26T13:02:12.342Z,97486.34
2023-03-26T13:05:02.238Z,97479.66
2023-03-26T13:08:17.172Z,97459.13
2023-03-26T13:10:51.398Z,97468.00
2023-03-26T13:13:42.972Z,97465.72
2023-03-26T13:16:51.642Z,97455.34
2023-03-26T13:19:27.410Z,97445.63
2023-03-26T13:21:57.513Z,97448.50
2023-03-26T13:24:46.300Z,97447.38
2023-03-26T13:27:39.079Z,97437.63
2023-03-26T13:30:14.973Z,97429.75
2023-03-26T13:33:11.107Z,97423.75
2023-03-26T13:35:47.116Z,97420.97
2023-03-26T13:38:37.306Z,97414.84
2023-03-26T13:41:34.580Z,97409.38
2023-03-26T13:44:31.390Z,97402.34
2023-03-26T13:47:09.553Z,97394.50
2023-03-26T13:50:17.986Z,97395.63
2023-03-26T13:52:53.312Z,97396.31
2023-03-26T13:55:30.177Z,97394.06
2023-03-26T13:58:02.479Z,97389.31
2023-03-26T14:00:55.742Z,97390.22
2023-03-26T14:03:54.417Z,97387.56
2023-03-26T14:06:42.469Z,97379.81
2023-03-26T14:09:38.680Z,97368.88
2023-03-26T14:12:38.627Z,97364.59
2023-03-26T14:15:14.464Z,97367.31
2023-03-26T14:18:27.480Z,97363.22
2023-03-26T14:21:17.689Z,97355.69
2023-03-26T14:23:56.876Z,97348.41
2023-03-26T14:27:03.792Z,97353.44
2023-03-26T14:29:57.874Z,97345.16
2023-03-26T14:32:30.740Z,97328.44
2023-03-26T14:35:20.593Z,97331.69
2023-03-26T14:38:09.474Z,97325.88
2023-03-26T14:41:14.589Z,97309.53
2023-03-26T14:44:47.639Z,97317.50
2023-03-26T14:47:19.543Z,97313.97
2023-03-26T14:50:11.102Z,97314.59
2023-03-26T14:52:52.045Z,97312.09
2023-03-26T14:55:48.914Z,97305.38
2023-03-26T14:58:40.994Z,97311.06
2023-03-26T15:01:27.254Z,97309.53
2023-03-26T15:04:31.655Z,97306.38
2023-03-26T15:07:36.396Z,97305.38
2023-03-26T15:10:24.617Z,97304.59
2023-03-26T15:13:28.327Z,97304.06
2023-03-26T15:16:14.192Z,97303.31
2023-03-26T15:18:57.191Z,97303.81
2023-03-26T15:21:51.682Z,97294.34
2023-03-26T15:24:56.219Z,97295.59
2023-03-26T15:27:24.734Z,97289.38
2023-03-26T15:30:16.404Z,97292.78
2023-03-26T15:33:01.665Z,97297.88
2023-03-26T15:35:54.693Z,97304.31
2023-03-26T15:38:29.064Z,97288.00
2023-03-26T15:41:18.835Z,97296.50
2023-03-26T15:44:23.266Z,97297.72
2023-03-26T15:46:51.261Z,97291.59
2023-03-26T15:49:24.304Z,97302.06
2023-03-26T15:52:24.274Z,97302.53
2023-03-26T15:55:02.071Z,97304.69
2023-03-26T15:57:53.648Z,97303.50
2023-03-26T16:00:26.222Z,97309.47
2023-03-26T16:03:11.375Z,97308.06
2023-03-26T16:06:02.540Z,97300.03
2023-03-26T16:08:41.379Z,97301.88
2023-03-26T16:11:12.859Z,97299.75
2023-03-26T16:14:19.739Z,97306.25
2023-03-26T16:16:58.863Z,97302.63
2023-03-26T16:19:41.492Z,97298.09
2023-03-26T16:22:15.701Z,97309.00
2023-03-26T16:24:49.672Z,97308.28
2023-03-26T16:27:28.350Z,97312.03
2023-03-26T16:30:01.398Z,97309.16
2023-03-26T16:32:34.449Z,97293.09
2023-03-26T16:35:10.603Z,97305.72
2023-03-26T16:38:06.025Z,97310.16
2023-03-26T16:40:35.343Z,97305.91
2023-03-26T16:43:14.529Z,97310.66
2023-03-26T16:46:13.208Z,97308.34
2023-03-26T16:48:59.273Z,97314.69
2023-03-26T16:51:50.573Z,97316.94
2023-03-26T16:54:39.769Z,97308.59
2023-03-26T16:57:23.988Z,97311.09
2023-03-26T17:00:07.532Z,97308.06
2023-03-26T17:03:19.946Z,97307.06
2023-03-26T17:06:02.502Z,97312.84
2023-03-26T17:08:42.890Z,97304.44
2023-03-26T17:11:24.667Z,97301.69
2023-03-26T17:13:54.349Z,97301.72
2023-03-26T17:16:29.970Z,97300.84
2023-03-26T17:19:21.592Z,97304.63
2023-03-26T17:22:21.785Z,97309.38
2023-03-26T17:25:21.107Z,97314.56
2023-03-26T17:28:35.577Z,97320.38
2023-03-26T17:31:05.780Z,97327.00
2023-03-26T17:33:37.007Z,97334.78
2023-03-26T17:36:13.002Z,97334.28
2023-03-26T17:38:40.435Z,97334.13
2023-03-26T17:41:15.859Z,97341.47
2023-03-26T17:43:47.180Z,97341.03
2023-03-26T17:46:35.185Z,97344.63
2023-03-26T17:49:19.417Z,97344.63
2023-03-26T17:52:17.231Z,97345.88
2023-03-26T17:54:51.546Z,97334.72
2023-03-26T17:57:42.189Z,97342.88
2023-03-26T18:00:18.705Z,97351.06
2023-03-26T18:02:54.346Z,97354.16
2023-03-26T18:05:24.844Z,97343.31
2023-03-26T18:08:02.366Z,97346.94
2023-03-26T18:10:49.822Z,97342.31
2023-03-26T18:13:31.834Z,97343.28
2023-03-26T18:16:37.054Z,97345.03
2023-03-26T18:19:19.280Z,97350.84
2023-03-26T18:21:50.612Z,97346.63
2023-03-26T18:24:39.665Z,97349.19
2023-03-26T18:27:12.582Z,97336.59
2023-03-26T18:29:44.622Z,97344.88
2023-03-26T18:32:12.176Z,97344.88
2023-03-26T18:34:50.214Z,97341.13
2023-03-26T18:37:35.653Z,97339.81
2023-03-26T18:40:11.924Z,97347.88
2023-03-26T18:42:41.281Z,97344.97
2023-03-26T18:45:17.211Z,97341.84
2023-03-26T18:47:44.472Z,97337.53
2023-03-26T18:50:19.109Z,97335.78
2023-03-26T18:52:46.406Z,97334.66
2023-03-26T18:55:14.819Z,97320.66
2023-03-26T18:57:43.133Z,97319.56
2023-03-26T19:00:21.017Z,97319.09
2023-03-26T19:02:51.263Z,97314.78
2023-03-26T19:05:20.456Z,97308.72
2023-03-26T19:07:48.122Z,97318.00
2023-03-26T19:10:22.424Z,97313.19
2023-03-26T19:13:01.390Z,97310.56
2023-03-26T19:15:34.287Z,97316.47
2023-03-26T19:18:14.159Z,97303.91
2023-03-26T19:20:51.065Z,97307.09
2023-03-26T19:23:21.493Z,97305.97
2023-03-26T19:26:01.891Z,97300.50
2023-03-26T19:28:36.008Z,97300.19
2023-03-26T19:31:19.643Z,97300.88
2023-03-26T19:33:55.372Z,97304.63
2023-03-26T19:36:30.472Z,97300.75
2023-03-26T19:39:00.200Z,97304.41
2023-03-26T19:41:36.185Z,97293.72
2023-03-26T19:44:26.183Z,97293.28
2023-03-26T19:47:02.993Z,97297.13
2023-03-26T19:49:33.312Z,97290.06
2023-03-26T19:52:17.913Z,97277.94
2023-03-26T19:55:10.459Z,97285.66
2023-03-26T19:57:38.200Z,97277.50
2023-03-26T20:00:13.706Z,97281.16
2023-03-26T20:02:46.682Z,97275.97
2023-03-26T20:05:26.058Z,97269.75
2023-03-26T20:07:57.623Z,97277.22
2023-03-26T20:10:25.039Z,97272.03
2023-03-26T20:12:52.804Z,97272.47
2023-03-26T20:15:25.939Z,97265.81
2023-03-26T20:17:54.272Z,97270.16
2023-03-26T20:20:25.870Z,97258.19
2023-03-26T20:22:56.772Z,97267.03
2023-03-26T20:25:30.182Z,97261.63
2023-03-26T20:27:59.600Z,97263.63
2023-03-26T20:30:37.345Z,97254.53
2023-03-26T20:33:12.004Z,97249.50
2023-03-26T20:35:41.640Z,97253.72
2023-03-26T20:38:10.071Z,97259.19
2023-03-26T20:40:38.726Z,97256.50
2023-03-26T20:43:12.381Z,97245.66
2023-03-26T20:45:40.331Z,97245.13
2023-03-26T20:48:09.539Z,97251.03
2023-03-26T20:50:41.593Z,97230.97
2023-03-26T20:53:17.042Z,97238.97
2023-03-26T20:55:46.675Z,97236.63
2023-03-26T20:58:15.308Z,97241.13
2023-03-26T21:00:45.192Z,97248.69
2023-03-26T21:03:15.160Z,97246.38
2023-03-26T21:05:43.532Z,97252.00
2023-03-26T21:08:18.779Z,97254.28
2023-03-26T21:10:47.551Z,97258.06
2023-03-26T21:13:29.728Z,97255.69
2023-03-26T21:15:59.429Z,97246.41
2023-03-26T21:18:29.114Z,97238.94
2023-03-26T21:21:21.043Z,97231.81
2023-03-26T21:24:00.446Z,97218.69
2023-03-26T21:26:44.646Z,97217.63
2023-03-26T21:29:12.296Z,97206.16
2023-03-26T21:31:40.117Z,97205.13
2023-03-26T21:34:08.605Z,97201.41
2023-03-26T21:36:39.022Z,97177.63
2023-03-26T21:39:07.422Z,97188.66
2023-03-26T21:42:04.488Z,97188.66
2023-03-26T21:44:34.344Z,97192.03
2023-03-26T21:47:01.794Z,97198.59
2023-03-26T21:49:29.282Z,97197.59
2023-03-26T21:51:56.879Z,97196.44
2023-03-26T21:54:30.042Z,97190.00
2023-03-26T21:57:17.965Z,97190.53
2023-03-26T22:00:15.764Z,97182.44
2023-03-26T22:03:03.089Z,97171.28
2023-03-26T22:05:44.120Z,97170.59
2023-03-26T22:08:31.733Z,97175.84
2023-03-26T22:10:59.113Z,97165.03
2023-03-26T22:13:26.299Z,97147.78
2023-03-26T22:15:54.013Z,97148.63
2023-03-26T22:18:21.958Z,97154.53
2023-03-26T22:20:49.531Z,97160.44
2023-03-26T22:23:17.143Z,97150.16
2023-03-26T22:25:44.713Z,97143.75
2023-03-26T22:28:12.300Z,97127.22
2023-03-26T22:30:39.637Z,97122.81
2023-03-26T22:33:11.487Z,97133.50
2023-03-26T22:35:39.394Z,97140.44
2023-03-26T22:38:07.192Z,97135.72
2023-03-26T22:40:34.398Z,97122.56
2023-03-26T22:43:01.965Z,97123.41
2023-03-26T22:45:30.380Z,97121.56
2023-03-26T22:48:03.427Z,97122.22
2023-03-26T22:50:32.422Z,97117.50
2023-03-26T22:52:59.609Z,97115.47
2023-03-26T22:55:28.198Z,97106.03
2023-03-26T22:57:57.136Z,97087.13
2023-03-26T23:00:26.750Z,97107.03
2023-03-26T23:02:56.121Z,97091.50
2023-03-26T23:05:23.815Z,97105.84
2023-03-26T23:07:52.541Z,97100.94
2023-03-26T23:10:19.632Z,97113.78
2023-03-26T23:12:47.316Z,97112.75
2023-03-26T23:15:14.393Z,97106.00
2023-03-26T23:17:41.688Z,97117.34
2023-03-26T23:20:15.498Z,97107.69
2023-03-26T23:22:43.488Z,97097.75
2023-03-26T23:25:12.082Z,97089.81
2023-03-26T23:27:40.369Z,97080.19
2023-03-26T23:30:08.502Z,97077.66
2023-03-26T23:32:38.319Z,97072.94
2023-03-26T23:35:06.408Z,97069.72
2023-03-26T23:37:35.350Z,97078.78
2023-03-26T23:40:06.087Z,97063.72
2023-03-26T23:42:34.767Z,97079.22
2023-03-26T23:45:02.297Z,97069.75
2023-03-26T23:47:34.860Z,97083.75
2023-03-26T23:50:02.947Z,97083.41
2023-03-26T23:52:31.003Z,97077.59
2023-03-26T23:55:01.339Z,97070.41
2023-03-26T23:57:29.338Z,97072.63
2023-03-26T23:59:56.549Z,97072.63
